sensor_id;sensor_type;location;lat;lon;timestamp;P1;durP1;ratioP1;P2;durP2;ratioP2
70457;SDS011;57919;56.194;95.716;2023-05-07T00:09:55;13.70;;;8.00;;
70457;SDS011;57919;56.194;95.716;2023-05-07T00:19:57;8.63;;;4.27;;
70457;SDS011;57919;56.194;95.716;2023-05-07T00:29:59;10.10;;;5.50;;
70457;SDS011;57919;56.194;95.716;2023-05-07T00:40:01;14.55;;;6.35;;
70457;SDS011;57919;56.194;95.716;2023-05-07T00:50:05;15.00;;;7.87;;
70457;SDS011;57919;56.194;95.716;2023-05-07T01:00:09;17.57;;;9.00;;
70457;SDS011;57919;56.194;95.716;2023-05-07T01:10:13;16.93;;;7.47;;
70457;SDS011;57919;56.194;95.716;2023-05-07T01:20:17;19.50;;;8.90;;
70457;SDS011;57919;56.194;95.716;2023-05-07T01:30:21;20.40;;;10.25;;
70457;SDS011;57919;56.194;95.716;2023-05-07T01:40:24;26.30;;;13.30;;
70457;SDS011;57919;56.194;95.716;2023-05-07T01:50:28;24.43;;;12.27;;
70457;SDS011;57919;56.194;95.716;2023-05-07T02:00:32;11.87;;;6.17;;
70457;SDS011;57919;56.194;95.716;2023-05-07T02:10:34;15.37;;;8.60;;
70457;SDS011;57919;56.194;95.716;2023-05-07T02:20:37;11.05;;;5.53;;
70457;SDS011;57919;56.194;95.716;2023-05-07T02:30:39;13.33;;;6.17;;
70457;SDS011;57919;56.194;95.716;2023-05-07T02:40:42;16.67;;;5.13;;
70457;SDS011;57919;56.194;95.716;2023-05-07T02:50:44;12.20;;;5.50;;
70457;SDS011;57919;56.194;95.716;2023-05-07T03:00:48;9.37;;;4.87;;
70457;SDS011;57919;56.194;95.716;2023-05-07T03:11:04;9.45;;;4.40;;
70457;SDS011;57919;56.194;95.716;2023-05-07T03:21:06;9.83;;;4.73;;
70457;SDS011;57919;56.194;95.716;2023-05-07T03:31:09;11.87;;;5.10;;
70457;SDS011;57919;56.194;95.716;2023-05-07T03:41:11;17.40;;;5.20;;
70457;SDS011;57919;56.194;95.716;2023-05-07T03:51:14;10.87;;;3.77;;
70457;SDS011;57919;56.194;95.716;2023-05-07T04:01:16;10.70;;;5.95;;
70457;SDS011;57919;56.194;95.716;2023-05-07T04:11:18;18.93;;;9.67;;
70457;SDS011;57919;56.194;95.716;2023-05-07T04:21:22;12.13;;;3.90;;
70457;SDS011;57919;56.194;95.716;2023-05-07T04:31:25;8.70;;;3.27;;
70457;SDS011;57919;56.194;95.716;2023-05-07T04:41:29;9.43;;;4.23;;
70457;SDS011;57919;56.194;95.716;2023-05-07T04:51:32;12.00;;;4.18;;
70457;SDS011;57919;56.194;95.716;2023-05-07T05:01:34;9.47;;;3.27;;
70457;SDS011;57919;56.194;95.716;2023-05-07T05:11:37;9.83;;;3.97;;
70457;SDS011;57919;56.194;95.716;2023-05-07T05:21:39;7.80;;;3.83;;
70457;SDS011;57919;56.194;95.716;2023-05-07T05:31:44;12.13;;;4.50;;
70457;SDS011;57919;56.194;95.716;2023-05-07T05:41:46;9.23;;;4.00;;
70457;SDS011;57919;56.194;95.716;2023-05-07T05:51:48;13.23;;;5.53;;
70457;SDS011;57919;56.194;95.716;2023-05-07T06:01:51;20.70;;;6.03;;
70457;SDS011;57919;56.194;95.716;2023-05-07T06:11:53;26.23;;;4.23;;
70457;SDS011;57919;56.194;95.716;2023-05-07T06:21:55;14.23;;;4.20;;
70457;SDS011;57919;56.194;95.716;2023-05-07T06:32:10;9.95;;;4.13;;
70457;SDS011;57919;56.194;95.716;2023-05-07T06:42:14;13.17;;;4.60;;
70457;SDS011;57919;56.194;95.716;2023-05-07T06:52:18;10.73;;;3.97;;
70457;SDS011;57919;56.194;95.716;2023-05-07T07:02:22;8.07;;;3.50;;
70457;SDS011;57919;56.194;95.716;2023-05-07T07:12:25;12.47;;;4.60;;
70457;SDS011;57919;56.194;95.716;2023-05-07T07:22:27;13.30;;;4.15;;
70457;SDS011;57919;56.194;95.716;2023-05-07T07:32:29;9.10;;;3.20;;
70457;SDS011;57919;56.194;95.716;2023-05-07T07:42:34;9.60;;;3.80;;
70457;SDS011;57919;56.194;95.716;2023-05-07T07:52:36;10.73;;;3.10;;
70457;SDS011;57919;56.194;95.716;2023-05-07T08:02:39;11.53;;;4.93;;
70457;SDS011;57919;56.194;95.716;2023-05-07T08:12:41;18.30;;;3.30;;
70457;SDS011;57919;56.194;95.716;2023-05-07T08:22:43;7.00;;;2.53;;
70457;SDS011;57919;56.194;95.716;2023-05-07T08:32:45;6.17;;;2.17;;
70457;SDS011;57919;56.194;95.716;2023-05-07T08:42:48;10.03;;;3.73;;
70457;SDS011;57919;56.194;95.716;2023-05-07T08:52:51;9.40;;;2.57;;
70457;SDS011;57919;56.194;95.716;2023-05-07T09:02:54;8.50;;;2.42;;
70457;SDS011;57919;56.194;95.716;2023-05-07T09:12:56;10.57;;;2.50;;
70457;SDS011;57919;56.194;95.716;2023-05-07T09:22:58;6.77;;;1.70;;
70457;SDS011;57919;56.194;95.716;2023-05-07T09:33:02;4.47;;;1.07;;
70457;SDS011;57919;56.194;95.716;2023-05-07T09:43:09;3.57;;;1.00;;
70457;SDS011;57919;56.194;95.716;2023-05-07T09:53:16;5.60;;;1.80;;
70457;SDS011;57919;56.194;95.716;2023-05-07T10:03:19;9.30;;;2.27;;
70457;SDS011;57919;56.194;95.716;2023-05-07T10:13:29;11.80;;;3.10;;
70457;SDS011;57919;56.194;95.716;2023-05-07T10:23:34;14.63;;;4.20;;
70457;SDS011;57919;56.194;95.716;2023-05-07T10:33:36;14.63;;;3.80;;
70457;SDS011;57919;56.194;95.716;2023-05-07T10:43:40;63.63;;;8.15;;
70457;SDS011;57919;56.194;95.716;2023-05-07T10:53:48;19.50;;;2.73;;
70457;SDS011;57919;56.194;95.716;2023-05-07T11:14:55;6.47;;;1.20;;
70457;SDS011;57919;56.194;95.716;2023-05-07T11:25:06;12.67;;;2.60;;
70457;SDS011;57919;56.194;95.716;2023-05-07T11:35:09;11.90;;;2.40;;
70457;SDS011;57919;56.194;95.716;2023-05-07T11:45:11;8.27;;;1.60;;
70457;SDS011;57919;56.194;95.716;2023-05-07T11:55:13;10.20;;;5.43;;
70457;SDS011;57919;56.194;95.716;2023-05-07T12:05:20;27.87;;;3.63;;
70457;SDS011;57919;56.194;95.716;2023-05-07T12:15:22;15.27;;;2.80;;
70457;SDS011;57919;56.194;95.716;2023-05-07T12:25:25;36.97;;;14.70;;
70457;SDS011;57919;56.194;95.716;2023-05-07T12:35:30;27.13;;;11.87;;
70457;SDS011;57919;56.194;95.716;2023-05-07T12:45:37;24.33;;;9.83;;
70457;SDS011;57919;56.194;95.716;2023-05-07T12:55:44;42.43;;;20.63;;
70457;SDS011;57919;56.194;95.716;2023-05-07T13:05:48;65.50;;;30.23;;
70457;SDS011;57919;56.194;95.716;2023-05-07T13:15:51;77.45;;;38.38;;
70457;SDS011;57919;56.194;95.716;2023-05-07T13:25:53;80.33;;;34.07;;
70457;SDS011;57919;56.194;95.716;2023-05-07T13:35:58;141.20;;;61.10;;
70457;SDS011;57919;56.194;95.716;2023-05-07T13:46:01;215.73;;;99.17;;
70457;SDS011;57919;56.194;95.716;2023-05-07T13:56:03;254.40;;;109.23;;
70457;SDS011;57919;56.194;95.716;2023-05-07T14:06:06;315.70;;;129.35;;
70457;SDS011;57919;56.194;95.716;2023-05-07T14:16:08;283.43;;;115.70;;
70457;SDS011;57919;56.194;95.716;2023-05-07T14:26:10;283.83;;;114.43;;
70457;SDS011;57919;56.194;95.716;2023-05-07T14:36:12;290.43;;;120.70;;
70457;SDS011;57919;56.194;95.716;2023-05-07T14:46:13;265.80;;;107.50;;
70457;SDS011;57919;56.194;95.716;2023-05-07T14:56:16;238.68;;;95.88;;
70457;SDS011;57919;56.194;95.716;2023-05-07T15:06:18;190.20;;;74.17;;
70457;SDS011;57919;56.194;95.716;2023-05-07T15:16:20;174.80;;;65.23;;
70457;SDS011;57919;56.194;95.716;2023-05-07T15:26:22;130.03;;;55.50;;
70457;SDS011;57919;56.194;95.716;2023-05-07T15:36:24;113.33;;;43.50;;
70457;SDS011;57919;56.194;95.716;2023-05-07T15:46:26;101.28;;;37.65;;
70457;SDS011;57919;56.194;95.716;2023-05-07T15:56:28;84.17;;;33.93;;
70457;SDS011;57919;56.194;95.716;2023-05-07T16:06:35;102.30;;;39.47;;
70457;SDS011;57919;56.194;95.716;2023-05-07T16:16:37;31.50;;;14.03;;
70457;SDS011;57919;56.194;95.716;2023-05-07T16:26:40;28.77;;;8.27;;
70457;SDS011;57919;56.194;95.716;2023-05-07T16:36:42;55.22;;;18.25;;
70457;SDS011;57919;56.194;95.716;2023-05-07T16:46:44;56.00;;;22.10;;
70457;SDS011;57919;56.194;95.716;2023-05-07T16:56:46;34.87;;;14.03;;
70457;SDS011;57919;56.194;95.716;2023-05-07T17:06:48;32.77;;;10.90;;
70457;SDS011;57919;56.194;95.716;2023-05-07T17:16:50;25.10;;;9.77;;
70457;SDS011;57919;56.194;95.716;2023-05-07T17:26:51;22.70;;;7.43;;
70457;SDS011;57919;56.194;95.716;2023-05-07T17:36:53;21.30;;;6.17;;
70457;SDS011;57919;56.194;95.716;2023-05-07T17:46:56;13.17;;;4.90;;
70457;SDS011;57919;56.194;95.716;2023-05-07T17:56:58;8.83;;;2.60;;
70457;SDS011;57919;56.194;95.716;2023-05-07T18:07:00;8.43;;;2.43;;
70457;SDS011;57919;56.194;95.716;2023-05-07T18:17:02;11.55;;;2.55;;
70457;SDS011;57919;56.194;95.716;2023-05-07T18:27:03;10.13;;;3.77;;
70457;SDS011;57919;56.194;95.716;2023-05-07T18:37:05;12.40;;;4.70;;
70457;SDS011;57919;56.194;95.716;2023-05-07T18:47:07;13.80;;;5.40;;
70457;SDS011;57919;56.194;95.716;2023-05-07T18:57:09;18.03;;;6.67;;
70457;SDS011;57919;56.194;95.716;2023-05-07T19:07:11;9.30;;;2.35;;
70457;SDS011;57919;56.194;95.716;2023-05-07T19:17:13;10.67;;;3.27;;
70457;SDS011;57919;56.194;95.716;2023-05-07T19:27:16;14.10;;;4.17;;
70457;SDS011;57919;56.194;95.716;2023-05-07T19:37:18;16.20;;;5.73;;
70457;SDS011;57919;56.194;95.716;2023-05-07T19:47:22;16.53;;;5.60;;
70457;SDS011;57919;56.194;95.716;2023-05-07T19:57:24;17.25;;;6.30;;
70457;SDS011;57919;56.194;95.716;2023-05-07T20:07:26;19.73;;;7.37;;
70457;SDS011;57919;56.194;95.716;2023-05-07T20:17:28;15.77;;;5.20;;
70457;SDS011;57919;56.194;95.716;2023-05-07T20:27:30;238.40;;;78.10;;
70457;SDS011;57919;56.194;95.716;2023-05-07T20:37:34;48.63;;;23.87;;
70457;SDS011;57919;56.194;95.716;2023-05-07T20:47:36;36.47;;;11.93;;
70457;SDS011;57919;56.194;95.716;2023-05-07T20:57:38;17.83;;;5.87;;
70457;SDS011;57919;56.194;95.716;2023-05-07T21:07:40;24.43;;;7.50;;
70457;SDS011;57919;56.194;95.716;2023-05-07T21:17:42;19.92;;;4.25;;
70457;SDS011;57919;56.194;95.716;2023-05-07T21:27:44;30.03;;;8.10;;
70457;SDS011;57919;56.194;95.716;2023-05-07T21:37:46;33.13;;;7.67;;
70457;SDS011;57919;56.194;95.716;2023-05-07T21:47:48;24.13;;;5.77;;
70457;SDS011;57919;56.194;95.716;2023-05-07T21:57:50;21.23;;;8.80;;
70457;SDS011;57919;56.194;95.716;2023-05-07T22:07:51;26.08;;;9.30;;
70457;SDS011;57919;56.194;95.716;2023-05-07T22:17:53;23.37;;;7.57;;
70457;SDS011;57919;56.194;95.716;2023-05-07T22:27:55;19.37;;;6.10;;
70457;SDS011;57919;56.194;95.716;2023-05-07T22:37:57;16.48;;;5.70;;
70457;SDS011;57919;56.194;95.716;2023-05-07T22:47:59;16.00;;;5.73;;
70457;SDS011;57919;56.194;95.716;2023-05-07T22:58:01;18.23;;;5.23;;
70457;SDS011;57919;56.194;95.716;2023-05-07T23:08:03;11.47;;;3.97;;
70457;SDS011;57919;56.194;95.716;2023-05-07T23:18:05;16.90;;;5.70;;
70457;SDS011;57919;56.194;95.716;2023-05-07T23:28:07;13.00;;;3.55;;
70457;SDS011;57919;56.194;95.716;2023-05-07T23:38:09;9.20;;;2.80;;
70457;SDS011;57919;56.194;95.716;2023-05-07T23:48:11;7.80;;;3.10;;
70457;SDS011;57919;56.194;95.716;2023-05-07T23:58:13;8.00;;;3.10;;
